createdAt,value
2022-10-19T00:01:05.182Z,20.58
2022-10-19T00:03:32.614Z,16.95
2022-10-19T00:05:59.862Z,17.35
2022-10-19T00:08:26.749Z,21.05
2022-10-19T00:10:53.391Z,16.00
2022-10-19T00:13:20.092Z,16.55
2022-10-19T00:15:46.829Z,18.70
2022-10-19T00:18:13.492Z,15.70
2022-10-19T00:20:40.128Z,13.15
2022-10-19T00:23:06.751Z,15.52
2022-10-19T00:25:33.391Z,17.80
2022-10-19T00:28:00.733Z,30.42
2022-10-19T00:30:27.399Z,37.60
2022-10-19T00:32:54.016Z,45.00
2022-10-19T00:35:20.695Z,46.65
2022-10-19T00:37:47.425Z,49.03
2022-10-19T00:40:14.325Z,54.00
2022-10-19T00:42:40.995Z,57.55
2022-10-19T00:45:15.254Z,51.65
2022-10-19T00:47:42.987Z,71.28
2022-10-19T00:50:10.949Z,54.45
2022-10-19T00:52:37.658Z,54.72
2022-10-19T00:55:04.938Z,58.45
2022-10-19T00:57:32.169Z,56.17
2022-10-19T00:59:59.391Z,56.15
2022-10-19T01:02:26.293Z,57.05
2022-10-19T01:04:53.598Z,58.90
2022-10-19T01:07:20.640Z,53.00
2022-10-19T01:09:47.314Z,52.45
2022-10-19T01:12:31.790Z,55.25
2022-10-19T01:15:16.878Z,55.28
2022-10-19T01:18:02.002Z,50.42
2022-10-19T01:21:07.258Z,49.00
2022-10-19T01:23:53.229Z,51.70
2022-10-19T01:26:22.981Z,48.50
2022-10-19T01:29:03.845Z,61.47
2022-10-19T01:31:40.686Z,48.72
2022-10-19T01:34:31.721Z,52.30
2022-10-19T01:37:05.233Z,57.55
2022-10-19T01:39:54.626Z,51.70
2022-10-19T01:42:39.495Z,55.15
2022-10-19T01:45:08.458Z,54.65
2022-10-19T01:47:38.734Z,53.50
2022-10-19T01:50:37.270Z,47.78
2022-10-19T01:53:07.005Z,43.97
2022-10-19T01:55:33.748Z,41.78
2022-10-19T01:58:06.249Z,44.92
2022-10-19T02:00:36.212Z,34.50
2022-10-19T02:03:04.457Z,32.63
2022-10-19T02:05:32.709Z,32.58
2022-10-19T02:08:12.740Z,36.83
2022-10-19T02:10:41.857Z,34.17
2022-10-19T02:13:08.760Z,31.08
2022-10-19T02:15:38.359Z,31.50
2022-10-19T02:18:07.193Z,29.92
2022-10-19T02:20:36.436Z,36.10
2022-10-19T02:23:06.561Z,32.30
2022-10-19T02:25:34.057Z,43.97
2022-10-19T02:28:02.195Z,44.22
2022-10-19T02:30:28.895Z,45.88
2022-10-19T02:32:55.568Z,42.35
2022-10-19T02:35:23.029Z,38.80
2022-10-19T02:37:49.748Z,55.00
2022-10-19T02:40:16.588Z,38.58
2022-10-19T02:42:51.158Z,38.20
2022-10-19T02:45:31.198Z,34.35
2022-10-19T02:48:01.012Z,37.33
2022-10-19T02:50:27.919Z,296.30
2022-10-19T02:52:54.595Z,608.92
2022-10-19T02:55:21.208Z,261.20
2022-10-19T02:57:47.850Z,285.27
2022-10-19T03:00:14.841Z,402.25
2022-10-19T03:02:41.531Z,207.73
2022-10-19T03:05:09.083Z,791.42
2022-10-19T03:07:36.270Z,61.20
2022-10-19T03:10:03.588Z,762.17
2022-10-19T03:12:30.267Z,417.42
2022-10-19T03:14:56.909Z,1113.78
2022-10-19T03:17:23.541Z,304.10
2022-10-19T03:19:50.181Z,229.52
2022-10-19T03:22:16.889Z,109.80
2022-10-19T03:24:43.683Z,306.98
2022-10-19T03:27:10.406Z,368.52
2022-10-19T03:29:37.067Z,459.15
2022-10-19T03:32:04.054Z,360.88
2022-10-19T03:34:30.715Z,369.85
2022-10-19T03:36:59.310Z,591.83
2022-10-19T03:39:26.398Z,1370.75
2022-10-19T03:41:53.169Z,734.95
2022-10-19T03:44:19.838Z,395.80
2022-10-19T03:46:46.477Z,1678.10
2022-10-19T03:49:13.166Z,876.47
2022-10-19T03:51:40.001Z,201.80
2022-10-19T03:54:09.183Z,221.30
2022-10-19T03:56:36.439Z,354.63
2022-10-19T03:59:05.270Z,257.20
2022-10-19T04:01:40.000Z,1403.70
2022-10-19T04:04:12.824Z,937.97
2022-10-19T04:06:42.094Z,767.33
2022-10-19T04:09:11.179Z,194.65
2022-10-19T04:11:37.852Z,205.43
2022-10-19T04:14:04.684Z,144.05
2022-10-19T04:16:31.929Z,710.72
2022-10-19T04:18:58.937Z,550.25
2022-10-19T04:21:32.459Z,641.47
2022-10-19T04:24:07.825Z,306.33
2022-10-19T04:26:35.690Z,381.15
2022-10-19T04:29:02.389Z,237.00
2022-10-19T04:31:29.615Z,523.45
2022-10-19T04:33:56.826Z,681.47
2022-10-19T04:36:24.044Z,164.80
2022-10-19T04:38:50.748Z,459.95
2022-10-19T04:41:19.257Z,591.42
2022-10-19T04:43:46.376Z,185.38
2022-10-19T04:46:18.344Z,238.27
2022-10-19T04:48:46.195Z,186.38
2022-10-19T04:51:13.152Z,485.33
2022-10-19T04:53:41.486Z,875.22
2022-10-19T04:56:10.761Z,246.32
2022-10-19T04:58:37.427Z,147.32
2022-10-19T05:01:12.235Z,426.92
2022-10-19T05:03:39.653Z,137.60
2022-10-19T05:06:07.282Z,168.25
2022-10-19T05:08:34.201Z,995.40
2022-10-19T05:11:02.873Z,194.65
2022-10-19T05:13:29.710Z,850.88
2022-10-19T05:15:57.807Z,409.85
2022-10-19T05:18:24.495Z,114.15
2022-10-19T05:20:51.263Z,144.82
2022-10-19T05:23:17.916Z,145.13
2022-10-19T05:25:44.640Z,103.15
2022-10-19T05:28:11.265Z,175.50
2022-10-19T05:30:39.286Z,176.25
2022-10-19T05:33:05.955Z,224.68
2022-10-19T05:35:32.652Z,689.40
2022-10-19T05:37:59.302Z,347.38
2022-10-19T05:40:25.934Z,523.13
2022-10-19T05:42:52.557Z,443.13
2022-10-19T05:45:19.173Z,128.85
2022-10-19T05:47:45.853Z,213.13
2022-10-19T05:50:12.528Z,124.05
2022-10-19T05:52:39.175Z,989.08
2022-10-19T05:55:06.451Z,170.43
2022-10-19T05:57:33.497Z,209.57
2022-10-19T06:00:00.339Z,153.63
2022-10-19T06:02:26.968Z,314.23
2022-10-19T06:04:53.649Z,272.85
2022-10-19T06:07:20.333Z,275.40
2022-10-19T06:09:47.851Z,58.58
2022-10-19T06:12:16.194Z,72.85
2022-10-19T06:14:43.228Z,108.00
2022-10-19T06:17:09.929Z,83.75
2022-10-19T06:19:36.868Z,96.65
2022-10-19T06:22:03.594Z,170.60
2022-10-19T06:24:30.333Z,64.18
2022-10-19T06:26:57.021Z,566.50
2022-10-19T06:29:23.635Z,162.77
2022-10-19T06:31:50.300Z,68.40
2022-10-19T06:34:17.118Z,84.65
2022-10-19T06:36:44.929Z,66.53
2022-10-19T06:39:11.601Z,88.00
2022-10-19T06:41:38.323Z,42.40
2022-10-19T06:44:05.056Z,43.53
2022-10-19T06:46:32.380Z,56.10
2022-10-19T06:49:01.142Z,80.50
2022-10-19T06:51:29.518Z,45.70
2022-10-19T06:53:57.499Z,41.13
2022-10-19T06:56:25.467Z,45.13
2022-10-19T06:58:52.702Z,42.65
2022-10-19T07:01:19.500Z,42.67
2022-10-19T07:03:46.187Z,39.35
2022-10-19T07:06:13.704Z,42.47
2022-10-19T07:08:41.981Z,53.78
2022-10-19T07:11:11.244Z,43.95
2022-10-19T07:16:15.781Z,43.97
2022-10-19T07:18:46.817Z,37.92
2022-10-19T07:21:15.574Z,43.85
2022-10-19T07:23:43.464Z,69.70
2022-10-19T07:26:14.339Z,39.53
2022-10-19T07:28:42.206Z,42.55
2022-10-19T07:31:11.144Z,32.78
2022-10-19T07:33:38.123Z,36.10
2022-10-19T07:36:07.110Z,34.50
2022-10-19T07:38:34.531Z,33.58
2022-10-19T07:41:02.164Z,35.92
2022-10-19T07:43:28.932Z,33.67
2022-10-19T07:46:03.349Z,35.88
2022-10-19T07:48:30.131Z,30.02
2022-10-19T07:50:57.115Z,41.65
2022-10-19T07:53:24.390Z,36.03
2022-10-19T07:55:51.078Z,33.35
2022-10-19T07:58:17.766Z,33.33
2022-10-19T08:00:44.537Z,33.53
2022-10-19T08:03:43.764Z,37.33
2022-10-19T08:06:02.514Z,33.67
2022-10-19T08:08:29.273Z,36.60
2022-10-19T08:10:56.249Z,40.28
2022-10-19T08:13:22.943Z,42.40
2022-10-19T08:15:49.833Z,41.60
2022-10-19T08:18:21.467Z,42.75
2022-10-19T08:20:48.161Z,53.75
2022-10-19T08:23:14.835Z,46.42
2022-10-19T08:25:41.498Z,49.97
2022-10-19T08:28:08.187Z,48.58
2022-10-19T08:30:36.062Z,50.63
2022-10-19T08:33:04.568Z,52.45
2022-10-19T08:35:31.548Z,70.15
2022-10-19T08:37:58.854Z,60.35
2022-10-19T08:40:29.459Z,55.65
2022-10-19T08:43:33.015Z,56.03
2022-10-19T08:46:12.801Z,57.67
2022-10-19T08:48:42.996Z,62.42
2022-10-19T08:51:12.698Z,67.07
2022-10-19T08:53:59.645Z,70.30
2022-10-19T08:56:50.036Z,60.10
2022-10-19T08:59:28.244Z,49.60
2022-10-19T09:02:28.259Z,49.67
2022-10-19T09:05:00.685Z,45.97
2022-10-19T09:07:37.629Z,44.33
2022-10-19T09:10:15.743Z,43.42
2022-10-19T09:12:46.040Z,46.13
2022-10-19T09:15:18.752Z,42.28
2022-10-19T09:17:45.610Z,40.28
2022-10-19T09:20:33.505Z,36.10
2022-10-19T09:23:11.117Z,32.55
2022-10-19T09:25:39.980Z,32.70
2022-10-19T09:28:18.405Z,41.10
2022-10-19T09:30:47.178Z,32.80
2022-10-19T09:33:21.797Z,32.17
2022-10-19T09:35:48.583Z,30.52
2022-10-19T09:38:19.868Z,34.40
2022-10-19T09:40:47.230Z,25.92
2022-10-19T09:43:21.339Z,25.30
2022-10-19T09:46:19.519Z,27.55
2022-10-19T09:48:51.075Z,20.75
2022-10-19T09:51:18.848Z,21.58
2022-10-19T09:53:52.490Z,26.15
2022-10-19T09:56:26.974Z,34.88
2022-10-19T09:58:57.367Z,23.30
2022-10-19T10:01:41.486Z,16.98
2022-10-19T10:04:09.656Z,19.05
2022-10-19T10:06:37.009Z,20.00
2022-10-19T10:09:03.948Z,18.13
2022-10-19T10:11:38.140Z,19.38
2022-10-19T10:14:17.696Z,14.75
2022-10-19T10:16:44.661Z,14.90
2022-10-19T10:19:16.460Z,12.80
2022-10-19T10:21:52.802Z,21.25
2022-10-19T10:24:21.595Z,11.45
2022-10-19T10:26:53.932Z,12.43
2022-10-19T10:29:20.571Z,16.17
2022-10-19T10:31:55.746Z,20.70
2022-10-19T10:37:30.205Z,19.90
2022-10-19T10:40:00.547Z,21.77
2022-10-19T10:42:49.358Z,14.40
2022-10-19T10:45:29.657Z,15.13
2022-10-19T10:47:57.082Z,14.73
2022-10-19T10:50:32.696Z,38.65
2022-10-19T10:53:05.172Z,15.98
2022-10-19T10:55:32.857Z,17.50
2022-10-19T10:58:16.744Z,18.30
2022-10-19T11:00:44.230Z,19.10
2022-10-19T11:03:26.617Z,13.75
2022-10-19T11:06:05.488Z,12.45
2022-10-19T11:08:49.117Z,20.15
2022-10-19T11:11:28.475Z,28.08
2022-10-19T11:14:05.093Z,14.70
2022-10-19T11:16:35.419Z,12.50
2022-10-19T11:19:35.834Z,18.23
2022-10-19T11:22:30.103Z,13.50
2022-10-19T11:25:18.450Z,13.07
2022-10-19T11:27:50.979Z,11.90
2022-10-19T11:30:20.555Z,14.38
2022-10-19T11:32:57.814Z,10.82
2022-10-19T11:35:27.492Z,11.68
2022-10-19T11:38:20.406Z,17.95
2022-10-19T11:41:17.687Z,13.52
2022-10-19T11:43:45.372Z,12.30
2022-10-19T11:46:15.027Z,12.38
2022-10-19T11:48:52.856Z,17.13
2022-10-19T11:51:41.912Z,15.55
2022-10-19T11:54:13.772Z,13.40
2022-10-19T11:57:03.284Z,11.02
2022-10-19T12:00:08.244Z,13.75
2022-10-19T12:03:38.191Z,19.48
2022-10-19T12:06:18.062Z,14.90
2022-10-19T12:09:00.054Z,17.10
2022-10-19T12:11:49.602Z,13.10
2022-10-19T12:14:20.522Z,20.92
2022-10-19T12:16:52.171Z,12.13
2022-10-19T12:19:22.496Z,12.48
2022-10-19T12:21:51.084Z,11.15
2022-10-19T12:24:23.891Z,17.25
2022-10-19T12:26:51.917Z,19.95
2022-10-19T12:29:33.720Z,19.45
2022-10-19T12:32:01.347Z,13.13
2022-10-19T12:34:47.281Z,18.55
2022-10-19T12:37:28.665Z,15.38
2022-10-19T12:40:00.466Z,12.15
2022-10-19T12:42:35.673Z,21.00
2022-10-19T12:45:25.356Z,16.52
2022-10-19T12:48:15.866Z,17.80
2022-10-19T12:50:48.656Z,15.43
2022-10-19T12:53:30.910Z,19.88
2022-10-19T12:56:05.602Z,10.93
2022-10-19T12:58:46.782Z,12.00
2022-10-19T13:01:27.598Z,16.48
2022-10-19T13:04:11.067Z,13.27
2022-10-19T13:06:44.194Z,10.38
2022-10-19T13:09:24.493Z,16.65
2022-10-19T13:12:22.467Z,13.52
2022-10-19T13:15:00.290Z,14.20
2022-10-19T13:17:49.110Z,17.00
2022-10-19T13:20:15.812Z,16.30
2022-10-19T13:22:45.018Z,13.50
2022-10-19T13:25:30.633Z,17.65
2022-10-19T13:28:01.383Z,20.92
2022-10-19T13:30:40.905Z,16.45
2022-10-19T13:33:31.637Z,19.80
2022-10-19T13:36:02.563Z,22.67
2022-10-19T13:41:14.709Z,29.35
2022-10-19T13:44:01.977Z,45.72
2022-10-19T13:46:31.716Z,21.73
2022-10-19T13:49:19.938Z,67.88
2022-10-19T13:52:03.202Z,66.93
2022-10-19T13:54:35.989Z,51.58
2022-10-19T13:57:27.699Z,22.52
2022-10-19T14:00:19.004Z,19.45
2022-10-19T14:03:00.859Z,25.40
2022-10-19T14:05:33.354Z,19.15
2022-10-19T14:08:21.860Z,15.15
2022-10-19T14:11:01.388Z,16.85
2022-10-19T14:13:28.804Z,16.27
2022-10-19T14:15:57.199Z,14.63
2022-10-19T14:18:29.815Z,23.25
2022-10-19T14:21:01.325Z,15.52
2022-10-19T14:23:30.348Z,15.32
2022-10-19T14:26:05.528Z,16.95
2022-10-19T14:28:33.347Z,15.93
2022-10-19T14:31:08.748Z,19.67
2022-10-19T14:33:39.733Z,19.60
2022-10-19T14:36:07.807Z,20.42
2022-10-19T14:38:39.026Z,19.17
2022-10-19T14:41:06.840Z,15.88
2022-10-19T14:43:34.582Z,14.25
2022-10-19T14:46:07.423Z,19.67
2022-10-19T14:48:48.712Z,17.08
2022-10-19T14:51:39.327Z,15.70
2022-10-19T14:54:11.115Z,22.50
2022-10-19T14:57:00.840Z,20.05
2022-10-19T14:59:39.220Z,14.13
2022-10-19T15:02:24.742Z,21.33
2022-10-19T15:04:53.027Z,23.15
2022-10-19T15:07:23.741Z,17.50
2022-10-19T15:09:59.862Z,28.10
2022-10-19T15:12:30.252Z,16.05
2022-10-19T15:14:57.688Z,26.05
2022-10-19T15:17:31.608Z,27.73
2022-10-19T15:20:02.424Z,31.73
2022-10-19T15:22:32.380Z,28.25
2022-10-19T15:25:08.386Z,37.47
2022-10-19T15:27:40.294Z,29.35
2022-10-19T15:30:29.647Z,31.98
2022-10-19T15:33:02.213Z,39.55
2022-10-19T15:35:30.964Z,35.78
2022-10-19T15:38:04.593Z,35.50
2022-10-19T15:40:36.487Z,32.47
2022-10-19T15:43:32.560Z,37.83
2022-10-19T15:46:23.518Z,46.15
2022-10-19T15:49:23.878Z,38.35
2022-10-19T15:51:50.868Z,51.42
2022-10-19T15:54:19.110Z,36.17
2022-10-19T15:56:48.431Z,45.00
2022-10-19T15:59:17.741Z,49.03
2022-10-19T16:01:45.437Z,64.68
2022-10-19T16:04:12.200Z,75.75
2022-10-19T16:06:40.659Z,66.50
2022-10-19T16:09:08.102Z,66.95
2022-10-19T16:11:35.469Z,72.65
2022-10-19T16:14:02.277Z,92.72
2022-10-19T16:16:31.401Z,88.20
2022-10-19T16:18:58.221Z,70.68
2022-10-19T16:21:31.272Z,65.50
2022-10-19T16:23:58.136Z,71.18
2022-10-19T16:26:26.284Z,67.93
2022-10-19T16:28:54.696Z,53.78
2022-10-19T16:31:22.117Z,79.22
2022-10-19T16:33:48.764Z,62.75
2022-10-19T16:36:18.356Z,56.30
2022-10-19T16:38:44.973Z,52.40
2022-10-19T16:41:11.990Z,51.78
2022-10-19T16:43:38.741Z,51.55
2022-10-19T16:46:06.062Z,64.40
2022-10-19T16:48:33.223Z,56.05
2022-10-19T16:51:05.963Z,49.72
2022-10-19T16:53:35.773Z,46.30
2022-10-19T16:56:08.380Z,43.78
2022-10-19T16:58:36.496Z,45.22
2022-10-19T17:01:10.444Z,40.83
2022-10-19T17:03:37.476Z,49.08
2022-10-19T17:06:05.469Z,27.23
2022-10-19T17:08:44.202Z,38.67
2022-10-19T17:11:33.438Z,41.97
2022-10-19T17:14:02.728Z,35.97
2022-10-19T17:16:31.374Z,37.15
2022-10-19T17:18:59.663Z,37.80
2022-10-19T17:21:31.736Z,32.22
2022-10-19T17:24:00.102Z,37.38
2022-10-19T17:26:43.196Z,36.75
2022-10-19T17:29:10.152Z,32.45
2022-10-19T17:31:37.869Z,39.08
2022-10-19T17:34:05.189Z,29.27
2022-10-19T17:36:34.581Z,36.42
2022-10-19T17:39:05.426Z,30.23
2022-10-19T17:41:32.409Z,39.67
2022-10-19T17:43:59.124Z,34.90
2022-10-19T17:46:28.362Z,41.75
2022-10-19T17:48:55.150Z,32.85
2022-10-19T17:51:24.521Z,29.30
2022-10-19T17:53:51.505Z,35.38
2022-10-19T17:56:20.372Z,37.60
2022-10-19T17:58:47.957Z,35.30
2022-10-19T18:01:16.357Z,30.75
2022-10-19T18:03:43.087Z,32.03
2022-10-19T18:06:15.381Z,36.95
2022-10-19T18:08:44.795Z,35.85
2022-10-19T18:11:14.360Z,41.78
2022-10-19T18:13:43.984Z,41.90
2022-10-19T18:16:11.830Z,43.92
2022-10-19T18:18:40.160Z,40.42
2022-10-19T18:21:09.198Z,42.92
2022-10-19T18:23:36.088Z,41.45
2022-10-19T18:26:13.866Z,48.03
2022-10-19T18:28:41.245Z,62.40
2022-10-19T18:31:09.950Z,72.35
2022-10-19T18:33:37.433Z,48.53
2022-10-19T18:36:05.231Z,45.17
2022-10-19T18:38:31.902Z,48.00
2022-10-19T18:41:02.977Z,38.78
2022-10-19T18:43:29.665Z,42.22
2022-10-19T18:45:57.726Z,38.30
2022-10-19T18:48:26.192Z,41.90
2022-10-19T18:50:52.923Z,52.90
2022-10-19T18:53:19.643Z,45.03
2022-10-19T18:55:46.305Z,46.20
2022-10-19T18:58:12.972Z,46.45
2022-10-19T19:00:45.627Z,38.00
2022-10-19T19:03:12.565Z,33.47
2022-10-19T19:05:39.257Z,41.63
2022-10-19T19:08:05.902Z,44.78
2022-10-19T19:10:32.551Z,34.85
2022-10-19T19:12:59.196Z,35.35
2022-10-19T19:15:25.871Z,44.55
2022-10-19T19:17:54.758Z,34.40
2022-10-19T19:20:21.391Z,32.55
2022-10-19T19:22:48.001Z,34.15
2022-10-19T19:25:14.654Z,32.70
2022-10-19T19:27:41.317Z,23.80
2022-10-19T19:30:09.256Z,32.45
2022-10-19T19:32:36.119Z,26.33
2022-10-19T19:35:02.992Z,40.65
2022-10-19T19:37:30.347Z,25.02
2022-10-19T19:39:57.016Z,26.90
2022-10-19T19:42:27.754Z,26.42
2022-10-19T19:44:54.708Z,34.08
2022-10-19T19:47:21.547Z,45.58
2022-10-19T19:49:48.155Z,28.52
2022-10-19T19:52:14.941Z,27.02
2022-10-19T19:54:41.625Z,27.42
2022-10-19T19:57:08.268Z,21.88
2022-10-19T19:59:34.987Z,22.98
2022-10-19T20:02:01.921Z,21.73
2022-10-19T20:04:28.672Z,22.90
2022-10-19T20:06:55.293Z,25.65
2022-10-19T20:09:21.913Z,26.45
2022-10-19T20:11:48.561Z,25.02
2022-10-19T20:14:15.249Z,24.83
2022-10-19T20:16:41.899Z,27.08
2022-10-19T20:19:11.232Z,21.10
2022-10-19T20:21:38.278Z,26.15
2022-10-19T20:24:05.140Z,19.42
2022-10-19T20:26:31.919Z,20.85
2022-10-19T20:28:58.745Z,20.67
2022-10-19T20:31:25.705Z,28.98
2022-10-19T20:33:52.547Z,29.08
2022-10-19T20:36:23.051Z,28.48
2022-10-19T20:38:55.248Z,20.35
2022-10-19T20:41:24.713Z,32.83
2022-10-19T20:43:51.962Z,24.75
2022-10-19T20:46:22.160Z,23.85
2022-10-19T20:48:49.931Z,34.78
2022-10-19T20:51:30.775Z,21.05
2022-10-19T20:54:00.279Z,24.27
2022-10-19T20:56:29.645Z,21.52
2022-10-19T20:58:57.893Z,25.95
2022-10-19T21:01:24.883Z,24.30
2022-10-19T21:03:53.712Z,33.75
2022-10-19T21:06:21.688Z,23.45
2022-10-19T21:08:48.928Z,21.45
2022-10-19T21:11:42.230Z,19.80
2022-10-19T21:14:14.238Z,24.45
2022-10-19T21:16:41.372Z,28.23
2022-10-19T21:19:19.751Z,16.80
2022-10-19T21:21:52.640Z,24.30
2022-10-19T21:24:32.435Z,18.23
2022-10-19T21:27:04.924Z,19.30
2022-10-19T21:29:31.624Z,19.30
2022-10-19T21:31:58.360Z,20.63
2022-10-19T21:34:29.814Z,25.17
2022-10-19T21:36:57.106Z,27.23
2022-10-19T21:39:24.586Z,23.10
2022-10-19T21:41:51.299Z,30.77
2022-10-19T21:44:18.675Z,30.05
2022-10-19T21:46:47.799Z,23.50
2022-10-19T21:51:40.849Z,27.23
2022-10-19T21:54:19.959Z,23.80
2022-10-19T21:56:47.356Z,20.92
2022-10-19T21:59:15.006Z,21.17
2022-10-19T22:01:42.063Z,24.73
2022-10-19T22:04:16.633Z,21.67
2022-10-19T22:06:43.725Z,19.33
2022-10-19T22:09:13.358Z,19.00
2022-10-19T22:11:40.035Z,18.00
2022-10-19T22:14:06.773Z,17.38
2022-10-19T22:16:36.987Z,18.45
2022-10-19T22:19:05.746Z,14.25
2022-10-19T22:21:33.979Z,15.70
2022-10-19T22:24:03.191Z,17.45
2022-10-19T22:28:59.280Z,17.83
2022-10-19T22:31:27.872Z,21.63
2022-10-19T22:33:54.919Z,18.20
2022-10-19T22:36:21.736Z,19.00
2022-10-19T22:38:48.681Z,16.38
2022-10-19T22:41:15.284Z,17.50
2022-10-19T22:43:41.954Z,17.40
2022-10-19T22:46:08.613Z,16.42
2022-10-19T22:48:35.314Z,13.27
2022-10-19T22:51:01.916Z,25.10
2022-10-19T22:53:28.622Z,26.70
2022-10-19T22:55:55.253Z,24.35
2022-10-19T22:58:21.952Z,16.58
2022-10-19T23:01:00.296Z,15.65
2022-10-19T23:03:26.989Z,16.35
2022-10-19T23:05:53.584Z,14.40
2022-10-19T23:08:20.212Z,20.23
2022-10-19T23:10:46.849Z,23.58
2022-10-19T23:13:13.478Z,19.15
2022-10-19T23:15:43.161Z,18.15
2022-10-19T23:18:11.049Z,28.40
2022-10-19T23:20:37.708Z,19.27
2022-10-19T23:23:04.332Z,20.83
2022-10-19T23:27:58.510Z,16.55
2022-10-19T23:30:25.225Z,22.35
2022-10-19T23:32:51.947Z,21.63
2022-10-19T23:35:18.603Z,19.73
2022-10-19T23:37:45.207Z,19.08
2022-10-19T23:40:12.146Z,16.77
2022-10-19T23:42:38.772Z,17.05
2022-10-19T23:45:05.893Z,20.58
2022-10-19T23:47:32.687Z,20.27
2022-10-19T23:49:59.432Z,16.55
2022-10-19T23:52:26.055Z,17.42
2022-10-19T23:54:52.688Z,17.55
2022-10-19T23:57:19.401Z,17.83
2022-10-19T23:59:46.021Z,18.15
